sensor_id;sensor_type;location;lat;lon;timestamp;P1;durP1;ratioP1;P2;durP2;ratioP2
4047;SDS011;2038;51.728;6.674;2023-07-09T00:02:26;9.50;;;5.77;;
4047;SDS011;2038;51.728;6.674;2023-07-09T00:04:52;8.00;;;5.60;;
4047;SDS011;2038;51.728;6.674;2023-07-09T00:07:21;7.90;;;6.30;;
4047;SDS011;2038;51.728;6.674;2023-07-09T00:09:54;10.07;;;6.67;;
4047;SDS011;2038;51.728;6.674;2023-07-09T00:12:21;7.50;;;6.23;;
4047;SDS011;2038;51.728;6.674;2023-07-09T00:14:48;9.97;;;6.50;;
4047;SDS011;2038;51.728;6.674;2023-07-09T00:17:18;10.53;;;5.93;;
4047;SDS011;2038;51.728;6.674;2023-07-09T00:19:55;7.37;;;5.93;;
4047;SDS011;2038;51.728;6.674;2023-07-09T00:22:22;10.13;;;6.17;;
4047;SDS011;2038;51.728;6.674;2023-07-09T00:24:51;8.07;;;6.67;;
4047;SDS011;2038;51.728;6.674;2023-07-09T00:27:22;13.43;;;7.47;;
4047;SDS011;2038;51.728;6.674;2023-07-09T00:29:53;10.23;;;6.50;;
4047;SDS011;2038;51.728;6.674;2023-07-09T00:32:20;8.90;;;7.20;;
4047;SDS011;2038;51.728;6.674;2023-07-09T00:34:46;11.20;;;8.03;;
4047;SDS011;2038;51.728;6.674;2023-07-09T00:37:14;10.43;;;6.50;;
4047;SDS011;2038;51.728;6.674;2023-07-09T00:39:42;9.50;;;6.60;;
4047;SDS011;2038;51.728;6.674;2023-07-09T00:42:17;11.27;;;7.80;;
4047;SDS011;2038;51.728;6.674;2023-07-09T00:44:46;10.50;;;7.40;;
4047;SDS011;2038;51.728;6.674;2023-07-09T00:49:42;10.13;;;7.13;;
4047;SDS011;2038;51.728;6.674;2023-07-09T00:52:32;9.57;;;7.63;;
4047;SDS011;2038;51.728;6.674;2023-07-09T00:55:08;11.33;;;6.90;;
4047;SDS011;2038;51.728;6.674;2023-07-09T00:57:41;8.00;;;6.17;;
4047;SDS011;2038;51.728;6.674;2023-07-09T01:00:21;11.17;;;7.20;;
4047;SDS011;2038;51.728;6.674;2023-07-09T01:03:11;12.30;;;7.33;;
4047;SDS011;2038;51.728;6.674;2023-07-09T01:05:54;12.00;;;7.60;;
4047;SDS011;2038;51.728;6.674;2023-07-09T01:08:22;9.53;;;6.40;;
4047;SDS011;2038;51.728;6.674;2023-07-09T01:10:50;9.77;;;6.43;;
4047;SDS011;2038;51.728;6.674;2023-07-09T01:13:16;10.20;;;6.73;;
4047;SDS011;2038;51.728;6.674;2023-07-09T01:15:44;9.13;;;7.50;;
4047;SDS011;2038;51.728;6.674;2023-07-09T01:18:12;10.60;;;7.90;;
4047;SDS011;2038;51.728;6.674;2023-07-09T01:20:39;7.73;;;6.57;;
4047;SDS011;2038;51.728;6.674;2023-07-09T01:23:07;10.60;;;8.70;;
4047;SDS011;2038;51.728;6.674;2023-07-09T01:25:34;12.03;;;7.87;;
4047;SDS011;2038;51.728;6.674;2023-07-09T01:28:07;11.53;;;7.87;;
4047;SDS011;2038;51.728;6.674;2023-07-09T01:30:35;9.10;;;6.63;;
4047;SDS011;2038;51.728;6.674;2023-07-09T01:33:05;13.77;;;7.67;;
4047;SDS011;2038;51.728;6.674;2023-07-09T01:35:33;13.10;;;7.47;;
4047;SDS011;2038;51.728;6.674;2023-07-09T01:38:06;12.07;;;7.47;;
4047;SDS011;2038;51.728;6.674;2023-07-09T01:40:33;10.30;;;7.80;;
4047;SDS011;2038;51.728;6.674;2023-07-09T01:43:01;10.70;;;7.90;;
4047;SDS011;2038;51.728;6.674;2023-07-09T01:45:31;9.73;;;6.90;;
4047;SDS011;2038;51.728;6.674;2023-07-09T01:47:59;11.70;;;6.93;;
4047;SDS011;2038;51.728;6.674;2023-07-09T01:50:27;9.40;;;7.10;;
4047;SDS011;2038;51.728;6.674;2023-07-09T01:52:54;8.80;;;6.20;;
4047;SDS011;2038;51.728;6.674;2023-07-09T01:55:21;11.07;;;8.10;;
4047;SDS011;2038;51.728;6.674;2023-07-09T01:57:48;10.53;;;7.67;;
4047;SDS011;2038;51.728;6.674;2023-07-09T02:00:16;13.67;;;7.83;;
4047;SDS011;2038;51.728;6.674;2023-07-09T02:02:44;13.90;;;9.00;;
4047;SDS011;2038;51.728;6.674;2023-07-09T02:05:12;12.77;;;7.93;;
4047;SDS011;2038;51.728;6.674;2023-07-09T02:07:42;11.83;;;7.27;;
4047;SDS011;2038;51.728;6.674;2023-07-09T02:10:09;11.40;;;8.43;;
4047;SDS011;2038;51.728;6.674;2023-07-09T02:12:37;12.10;;;8.30;;
4047;SDS011;2038;51.728;6.674;2023-07-09T02:15:03;13.10;;;10.07;;
4047;SDS011;2038;51.728;6.674;2023-07-09T02:17:31;13.50;;;9.10;;
4047;SDS011;2038;51.728;6.674;2023-07-09T02:19:57;10.80;;;7.43;;
4047;SDS011;2038;51.728;6.674;2023-07-09T02:22:23;13.37;;;9.27;;
4047;SDS011;2038;51.728;6.674;2023-07-09T02:24:49;14.07;;;8.87;;
4047;SDS011;2038;51.728;6.674;2023-07-09T02:27:18;12.93;;;9.23;;
4047;SDS011;2038;51.728;6.674;2023-07-09T02:29:46;13.37;;;8.50;;
4047;SDS011;2038;51.728;6.674;2023-07-09T02:32:17;15.37;;;8.90;;
4047;SDS011;2038;51.728;6.674;2023-07-09T02:34:47;13.07;;;9.23;;
4047;SDS011;2038;51.728;6.674;2023-07-09T02:37:14;13.30;;;9.20;;
4047;SDS011;2038;51.728;6.674;2023-07-09T02:39:44;13.00;;;8.93;;
4047;SDS011;2038;51.728;6.674;2023-07-09T02:42:11;12.20;;;9.07;;
4047;SDS011;2038;51.728;6.674;2023-07-09T02:44:40;14.00;;;9.47;;
4047;SDS011;2038;51.728;6.674;2023-07-09T02:47:08;10.27;;;7.47;;
4047;SDS011;2038;51.728;6.674;2023-07-09T02:49:35;12.03;;;8.53;;
4047;SDS011;2038;51.728;6.674;2023-07-09T02:52:02;9.77;;;8.10;;
4047;SDS011;2038;51.728;6.674;2023-07-09T02:54:29;14.57;;;8.93;;
4047;SDS011;2038;51.728;6.674;2023-07-09T02:56:56;11.77;;;9.60;;
4047;SDS011;2038;51.728;6.674;2023-07-09T02:59:22;17.27;;;8.53;;
4047;SDS011;2038;51.728;6.674;2023-07-09T03:01:50;9.70;;;8.17;;
4047;SDS011;2038;51.728;6.674;2023-07-09T03:04:17;11.57;;;8.27;;
4047;SDS011;2038;51.728;6.674;2023-07-09T03:06:45;15.00;;;9.50;;
4047;SDS011;2038;51.728;6.674;2023-07-09T03:09:12;10.67;;;8.87;;
4047;SDS011;2038;51.728;6.674;2023-07-09T03:11:38;12.43;;;9.13;;
4047;SDS011;2038;51.728;6.674;2023-07-09T03:14:04;16.27;;;8.60;;
4047;SDS011;2038;51.728;6.674;2023-07-09T03:16:31;11.90;;;8.80;;
4047;SDS011;2038;51.728;6.674;2023-07-09T03:18:59;14.90;;;8.80;;
4047;SDS011;2038;51.728;6.674;2023-07-09T03:21:28;12.37;;;9.57;;
4047;SDS011;2038;51.728;6.674;2023-07-09T03:23:54;12.60;;;9.10;;
4047;SDS011;2038;51.728;6.674;2023-07-09T03:26:22;12.90;;;9.43;;
4047;SDS011;2038;51.728;6.674;2023-07-09T03:28:50;12.47;;;8.20;;
4047;SDS011;2038;51.728;6.674;2023-07-09T03:31:17;16.10;;;9.63;;
4047;SDS011;2038;51.728;6.674;2023-07-09T03:33:46;11.00;;;9.07;;
4047;SDS011;2038;51.728;6.674;2023-07-09T03:36:13;12.53;;;9.33;;
4047;SDS011;2038;51.728;6.674;2023-07-09T03:38:39;13.17;;;9.20;;
4047;SDS011;2038;51.728;6.674;2023-07-09T03:41:06;18.30;;;10.60;;
4047;SDS011;2038;51.728;6.674;2023-07-09T03:43:32;16.63;;;9.90;;
4047;SDS011;2038;51.728;6.674;2023-07-09T03:45:58;12.30;;;9.60;;
4047;SDS011;2038;51.728;6.674;2023-07-09T03:48:24;13.97;;;10.20;;
4047;SDS011;2038;51.728;6.674;2023-07-09T03:50:51;12.53;;;9.80;;
4047;SDS011;2038;51.728;6.674;2023-07-09T03:53:17;14.47;;;10.73;;
4047;SDS011;2038;51.728;6.674;2023-07-09T03:55:45;13.70;;;9.80;;
4047;SDS011;2038;51.728;6.674;2023-07-09T03:58:17;14.67;;;10.17;;
4047;SDS011;2038;51.728;6.674;2023-07-09T04:00:43;13.00;;;10.30;;
4047;SDS011;2038;51.728;6.674;2023-07-09T04:03:10;13.23;;;9.80;;
4047;SDS011;2038;51.728;6.674;2023-07-09T04:05:36;13.53;;;10.57;;
4047;SDS011;2038;51.728;6.674;2023-07-09T04:08:02;14.50;;;9.80;;
4047;SDS011;2038;51.728;6.674;2023-07-09T04:10:30;13.33;;;10.63;;
4047;SDS011;2038;51.728;6.674;2023-07-09T04:12:56;12.37;;;10.50;;
4047;SDS011;2038;51.728;6.674;2023-07-09T04:15:23;13.03;;;10.60;;
4047;SDS011;2038;51.728;6.674;2023-07-09T04:17:49;12.17;;;9.60;;
4047;SDS011;2038;51.728;6.674;2023-07-09T04:20:16;14.87;;;10.07;;
4047;SDS011;2038;51.728;6.674;2023-07-09T04:22:43;13.63;;;9.83;;
4047;SDS011;2038;51.728;6.674;2023-07-09T04:25:10;11.10;;;9.37;;
4047;SDS011;2038;51.728;6.674;2023-07-09T04:27:37;13.20;;;8.93;;
4047;SDS011;2038;51.728;6.674;2023-07-09T04:30:13;12.93;;;8.80;;
4047;SDS011;2038;51.728;6.674;2023-07-09T04:32:41;10.17;;;8.77;;
4047;SDS011;2038;51.728;6.674;2023-07-09T04:35:09;12.87;;;10.17;;
4047;SDS011;2038;51.728;6.674;2023-07-09T04:37:37;12.83;;;8.77;;
4047;SDS011;2038;51.728;6.674;2023-07-09T04:40:05;10.53;;;8.37;;
4047;SDS011;2038;51.728;6.674;2023-07-09T04:42:35;14.30;;;10.10;;
4047;SDS011;2038;51.728;6.674;2023-07-09T04:45:03;11.00;;;8.43;;
4047;SDS011;2038;51.728;6.674;2023-07-09T04:47:32;10.47;;;8.03;;
4047;SDS011;2038;51.728;6.674;2023-07-09T04:49:58;12.20;;;7.50;;
4047;SDS011;2038;51.728;6.674;2023-07-09T04:52:24;11.40;;;9.27;;
4047;SDS011;2038;51.728;6.674;2023-07-09T04:54:50;10.13;;;8.93;;
4047;SDS011;2038;51.728;6.674;2023-07-09T04:57:16;10.83;;;7.60;;
4047;SDS011;2038;51.728;6.674;2023-07-09T04:59:44;11.57;;;8.00;;
4047;SDS011;2038;51.728;6.674;2023-07-09T05:02:11;10.10;;;8.53;;
4047;SDS011;2038;51.728;6.674;2023-07-09T05:04:37;11.87;;;8.47;;
4047;SDS011;2038;51.728;6.674;2023-07-09T05:07:03;9.70;;;7.80;;
4047;SDS011;2038;51.728;6.674;2023-07-09T05:09:30;9.57;;;7.63;;
4047;SDS011;2038;51.728;6.674;2023-07-09T05:11:57;10.23;;;7.70;;
4047;SDS011;2038;51.728;6.674;2023-07-09T05:14:25;9.93;;;7.63;;
4047;SDS011;2038;51.728;6.674;2023-07-09T05:16:52;11.20;;;8.10;;
4047;SDS011;2038;51.728;6.674;2023-07-09T05:19:19;13.23;;;8.50;;
4047;SDS011;2038;51.728;6.674;2023-07-09T05:21:45;16.87;;;9.00;;
4047;SDS011;2038;51.728;6.674;2023-07-09T05:24:11;12.67;;;7.90;;
4047;SDS011;2038;51.728;6.674;2023-07-09T05:26:37;17.03;;;9.13;;
4047;SDS011;2038;51.728;6.674;2023-07-09T05:29:04;11.13;;;8.20;;
4047;SDS011;2038;51.728;6.674;2023-07-09T05:31:30;11.20;;;8.07;;
4047;SDS011;2038;51.728;6.674;2023-07-09T05:33:58;10.17;;;8.37;;
4047;SDS011;2038;51.728;6.674;2023-07-09T05:36:26;11.37;;;8.70;;
4047;SDS011;2038;51.728;6.674;2023-07-09T05:38:54;12.00;;;8.27;;
4047;SDS011;2038;51.728;6.674;2023-07-09T05:41:20;8.60;;;7.43;;
4047;SDS011;2038;51.728;6.674;2023-07-09T05:43:48;13.63;;;8.40;;
4047;SDS011;2038;51.728;6.674;2023-07-09T05:46:17;8.50;;;7.17;;
4047;SDS011;2038;51.728;6.674;2023-07-09T05:48:44;9.23;;;7.30;;
4047;SDS011;2038;51.728;6.674;2023-07-09T05:51:11;13.80;;;8.67;;
4047;SDS011;2038;51.728;6.674;2023-07-09T05:53:37;10.30;;;7.67;;
4047;SDS011;2038;51.728;6.674;2023-07-09T05:56:04;11.70;;;7.27;;
4047;SDS011;2038;51.728;6.674;2023-07-09T05:58:31;11.37;;;7.30;;
4047;SDS011;2038;51.728;6.674;2023-07-09T06:00:57;11.73;;;8.57;;
4047;SDS011;2038;51.728;6.674;2023-07-09T06:03:24;10.60;;;8.47;;
4047;SDS011;2038;51.728;6.674;2023-07-09T06:05:52;14.73;;;9.03;;
4047;SDS011;2038;51.728;6.674;2023-07-09T06:08:19;15.60;;;8.90;;
4047;SDS011;2038;51.728;6.674;2023-07-09T06:10:50;17.77;;;8.77;;
4047;SDS011;2038;51.728;6.674;2023-07-09T06:13:17;17.57;;;8.63;;
4047;SDS011;2038;51.728;6.674;2023-07-09T06:15:45;12.00;;;8.63;;
4047;SDS011;2038;51.728;6.674;2023-07-09T06:18:13;13.13;;;8.37;;
4047;SDS011;2038;51.728;6.674;2023-07-09T06:20:39;12.47;;;9.10;;
4047;SDS011;2038;51.728;6.674;2023-07-09T06:23:05;14.40;;;8.80;;
4047;SDS011;2038;51.728;6.674;2023-07-09T06:25:32;16.40;;;9.07;;
4047;SDS011;2038;51.728;6.674;2023-07-09T06:27:59;17.13;;;8.80;;
4047;SDS011;2038;51.728;6.674;2023-07-09T06:30:25;16.90;;;9.00;;
4047;SDS011;2038;51.728;6.674;2023-07-09T06:32:51;13.47;;;8.67;;
4047;SDS011;2038;51.728;6.674;2023-07-09T06:35:17;15.00;;;8.53;;
4047;SDS011;2038;51.728;6.674;2023-07-09T06:37:43;15.00;;;9.47;;
4047;SDS011;2038;51.728;6.674;2023-07-09T06:40:10;17.03;;;9.43;;
4047;SDS011;2038;51.728;6.674;2023-07-09T06:42:37;21.90;;;9.93;;
4047;SDS011;2038;51.728;6.674;2023-07-09T06:45:04;12.40;;;8.80;;
4047;SDS011;2038;51.728;6.674;2023-07-09T06:47:31;11.23;;;8.00;;
4047;SDS011;2038;51.728;6.674;2023-07-09T06:49:57;12.43;;;7.97;;
4047;SDS011;2038;51.728;6.674;2023-07-09T06:52:23;12.50;;;8.83;;
4047;SDS011;2038;51.728;6.674;2023-07-09T06:54:49;14.63;;;8.67;;
4047;SDS011;2038;51.728;6.674;2023-07-09T06:57:15;15.43;;;8.20;;
4047;SDS011;2038;51.728;6.674;2023-07-09T06:59:42;11.53;;;7.93;;
4047;SDS011;2038;51.728;6.674;2023-07-09T07:02:08;14.10;;;8.60;;
4047;SDS011;2038;51.728;6.674;2023-07-09T07:04:34;18.07;;;9.63;;
4047;SDS011;2038;51.728;6.674;2023-07-09T07:07:00;13.27;;;7.50;;
4047;SDS011;2038;51.728;6.674;2023-07-09T07:09:28;14.77;;;9.05;;
4047;SDS011;2038;51.728;6.674;2023-07-09T07:11:54;11.98;;;7.88;;
4047;SDS011;2038;51.728;6.674;2023-07-09T07:14:20;12.20;;;8.43;;
4047;SDS011;2038;51.728;6.674;2023-07-09T07:16:47;10.65;;;7.70;;
4047;SDS011;2038;51.728;6.674;2023-07-09T07:19:13;14.75;;;8.43;;
4047;SDS011;2038;51.728;6.674;2023-07-09T07:21:39;15.68;;;8.25;;
4047;SDS011;2038;51.728;6.674;2023-07-09T07:24:06;12.25;;;8.30;;
4047;SDS011;2038;51.728;6.674;2023-07-09T07:26:32;12.85;;;7.43;;
4047;SDS011;2038;51.728;6.674;2023-07-09T07:28:58;13.85;;;8.20;;
4047;SDS011;2038;51.728;6.674;2023-07-09T07:31:24;15.90;;;7.50;;
4047;SDS011;2038;51.728;6.674;2023-07-09T07:33:51;15.93;;;9.00;;
4047;SDS011;2038;51.728;6.674;2023-07-09T07:36:17;14.55;;;7.47;;
4047;SDS011;2038;51.728;6.674;2023-07-09T07:38:43;15.50;;;8.98;;
4047;SDS011;2038;51.728;6.674;2023-07-09T07:41:09;13.55;;;8.27;;
4047;SDS011;2038;51.728;6.674;2023-07-09T07:43:36;9.60;;;7.13;;
4047;SDS011;2038;51.728;6.674;2023-07-09T07:46:02;13.85;;;7.50;;
4047;SDS011;2038;51.728;6.674;2023-07-09T07:48:28;13.27;;;8.23;;
4047;SDS011;2038;51.728;6.674;2023-07-09T07:50:58;14.55;;;9.35;;
4047;SDS011;2038;51.728;6.674;2023-07-09T07:53:26;11.98;;;8.30;;
4047;SDS011;2038;51.728;6.674;2023-07-09T07:55:54;14.77;;;9.18;;
4047;SDS011;2038;51.728;6.674;2023-07-09T07:58:22;9.52;;;8.27;;
4047;SDS011;2038;51.728;6.674;2023-07-09T08:00:48;12.05;;;8.95;;
4047;SDS011;2038;51.728;6.674;2023-07-09T08:03:19;11.20;;;9.30;;
4047;SDS011;2038;51.728;6.674;2023-07-09T08:05:48;15.00;;;8.88;;
4047;SDS011;2038;51.728;6.674;2023-07-09T08:08:15;10.77;;;8.73;;
4047;SDS011;2038;51.728;6.674;2023-07-09T08:10:42;13.18;;;9.45;;
4047;SDS011;2038;51.728;6.674;2023-07-09T08:13:08;10.85;;;8.27;;
4047;SDS011;2038;51.728;6.674;2023-07-09T08:15:35;11.80;;;8.05;;
4047;SDS011;2038;51.728;6.674;2023-07-09T08:18:01;10.60;;;8.07;;
4047;SDS011;2038;51.728;6.674;2023-07-09T08:20:27;16.83;;;8.98;;
4047;SDS011;2038;51.728;6.674;2023-07-09T08:22:54;12.77;;;8.73;;
4047;SDS011;2038;51.728;6.674;2023-07-09T08:25:20;10.45;;;7.85;;
4047;SDS011;2038;51.728;6.674;2023-07-09T08:27:46;12.02;;;7.32;;
4047;SDS011;2038;51.728;6.674;2023-07-09T08:30:12;11.82;;;8.15;;
4047;SDS011;2038;51.728;6.674;2023-07-09T08:32:39;11.77;;;8.77;;
4047;SDS011;2038;51.728;6.674;2023-07-09T08:35:05;11.95;;;8.95;;
4047;SDS011;2038;51.728;6.674;2023-07-09T08:37:32;11.25;;;8.88;;
4047;SDS011;2038;51.728;6.674;2023-07-09T08:39:58;10.68;;;8.02;;
4047;SDS011;2038;51.728;6.674;2023-07-09T08:42:26;10.23;;;7.90;;
4047;SDS011;2038;51.728;6.674;2023-07-09T08:45:23;16.00;;;8.52;;
4047;SDS011;2038;51.728;6.674;2023-07-09T08:48:17;10.45;;;8.50;;
4047;SDS011;2038;51.728;6.674;2023-07-09T08:50:56;12.18;;;8.60;;
4047;SDS011;2038;51.728;6.674;2023-07-09T08:53:38;11.38;;;8.07;;
4047;SDS011;2038;51.728;6.674;2023-07-09T08:56:22;13.05;;;7.82;;
4047;SDS011;2038;51.728;6.674;2023-07-09T08:58:52;14.50;;;9.00;;
4047;SDS011;2038;51.728;6.674;2023-07-09T09:01:36;11.65;;;7.13;;
4047;SDS011;2038;51.728;6.674;2023-07-09T09:04:17;14.48;;;9.10;;
4047;SDS011;2038;51.728;6.674;2023-07-09T09:10:10;8.82;;;7.57;;
4047;SDS011;2038;51.728;6.674;2023-07-09T09:15:37;9.35;;;7.45;;
4047;SDS011;2038;51.728;6.674;2023-07-09T09:20:52;9.50;;;8.25;;
4047;SDS011;2038;51.728;6.674;2023-07-09T09:23:38;9.50;;;7.60;;
4047;SDS011;2038;51.728;6.674;2023-07-09T09:26:15;12.07;;;7.07;;
4047;SDS011;2038;51.728;6.674;2023-07-09T09:28:48;10.07;;;7.18;;
4047;SDS011;2038;51.728;6.674;2023-07-09T09:31:16;12.15;;;6.35;;
4047;SDS011;2038;51.728;6.674;2023-07-09T09:33:44;7.85;;;6.57;;
4047;SDS011;2038;51.728;6.674;2023-07-09T09:36:15;11.65;;;7.20;;
4047;SDS011;2038;51.728;6.674;2023-07-09T09:38:50;12.63;;;7.13;;
4047;SDS011;2038;51.728;6.674;2023-07-09T09:41:20;7.75;;;5.70;;
4047;SDS011;2038;51.728;6.674;2023-07-09T09:43:51;10.90;;;7.25;;
4047;SDS011;2038;51.728;6.674;2023-07-09T09:46:20;10.82;;;7.20;;
4047;SDS011;2038;51.728;6.674;2023-07-09T09:48:55;11.40;;;7.03;;
4047;SDS011;2038;51.728;6.674;2023-07-09T09:51:26;14.25;;;7.07;;
4047;SDS011;2038;51.728;6.674;2023-07-09T09:54:00;11.65;;;8.18;;
4047;SDS011;2038;51.728;6.674;2023-07-09T09:56:28;10.98;;;7.20;;
4047;SDS011;2038;51.728;6.674;2023-07-09T09:58:59;10.50;;;7.22;;
4047;SDS011;2038;51.728;6.674;2023-07-09T10:01:29;8.95;;;6.60;;
4047;SDS011;2038;51.728;6.674;2023-07-09T10:04:00;19.60;;;8.45;;
4047;SDS011;2038;51.728;6.674;2023-07-09T10:06:52;10.93;;;7.22;;
4047;SDS011;2038;51.728;6.674;2023-07-09T10:12:30;11.60;;;6.38;;
4047;SDS011;2038;51.728;6.674;2023-07-09T10:18:23;12.35;;;7.95;;
4047;SDS011;2038;51.728;6.674;2023-07-09T10:24:29;10.27;;;6.47;;
4047;SDS011;2038;51.728;6.674;2023-07-09T10:27:08;9.95;;;7.05;;
4047;SDS011;2038;51.728;6.674;2023-07-09T10:39:05;9.45;;;6.95;;
4047;SDS011;2038;51.728;6.674;2023-07-09T10:41:41;15.65;;;6.45;;
4047;SDS011;2038;51.728;6.674;2023-07-09T10:46:51;7.60;;;6.38;;
4047;SDS011;2038;51.728;6.674;2023-07-09T10:49:30;10.50;;;6.68;;
4047;SDS011;2038;51.728;6.674;2023-07-09T10:52:06;19.05;;;7.82;;
4047;SDS011;2038;51.728;6.674;2023-07-09T10:54:54;8.77;;;6.35;;
4047;SDS011;2038;51.728;6.674;2023-07-09T10:57:57;10.20;;;7.38;;
4047;SDS011;2038;51.728;6.674;2023-07-09T11:00:34;12.43;;;6.88;;
4047;SDS011;2038;51.728;6.674;2023-07-09T11:03:14;10.90;;;6.95;;
4047;SDS011;2038;51.728;6.674;2023-07-09T11:05:51;9.85;;;6.50;;
4047;SDS011;2038;51.728;6.674;2023-07-09T11:08:20;11.30;;;7.40;;
4047;SDS011;2038;51.728;6.674;2023-07-09T11:11:03;6.65;;;5.97;;
4047;SDS011;2038;51.728;6.674;2023-07-09T11:13:42;12.95;;;7.07;;
4047;SDS011;2038;51.728;6.674;2023-07-09T11:16:32;8.70;;;6.22;;
4047;SDS011;2038;51.728;6.674;2023-07-09T11:19:05;11.73;;;6.85;;
4047;SDS011;2038;51.728;6.674;2023-07-09T11:21:59;6.80;;;5.70;;
4047;SDS011;2038;51.728;6.674;2023-07-09T11:27:49;10.85;;;7.30;;
4047;SDS011;2038;51.728;6.674;2023-07-09T11:30:26;7.32;;;5.82;;
4047;SDS011;2038;51.728;6.674;2023-07-09T11:32:59;7.93;;;6.43;;
4047;SDS011;2038;51.728;6.674;2023-07-09T11:35:42;8.70;;;5.72;;
4047;SDS011;2038;51.728;6.674;2023-07-09T11:38:17;9.88;;;6.85;;
4047;SDS011;2038;51.728;6.674;2023-07-09T11:40:53;8.30;;;5.85;;
4047;SDS011;2038;51.728;6.674;2023-07-09T11:46:03;9.25;;;6.85;;
4047;SDS011;2038;51.728;6.674;2023-07-09T11:48:59;9.00;;;6.88;;
4047;SDS011;2038;51.728;6.674;2023-07-09T11:51:38;10.73;;;6.25;;
4047;SDS011;2038;51.728;6.674;2023-07-09T11:54:11;6.50;;;5.60;;
4047;SDS011;2038;51.728;6.674;2023-07-09T11:56:38;6.65;;;5.45;;
4047;SDS011;2038;51.728;6.674;2023-07-09T11:59:05;11.25;;;5.47;;
4047;SDS011;2038;51.728;6.674;2023-07-09T12:01:45;6.72;;;5.88;;
4047;SDS011;2038;51.728;6.674;2023-07-09T12:04:17;8.02;;;5.45;;
4047;SDS011;2038;51.728;6.674;2023-07-09T12:06:46;7.85;;;5.50;;
4047;SDS011;2038;51.728;6.674;2023-07-09T12:09:18;8.85;;;6.15;;
4047;SDS011;2038;51.728;6.674;2023-07-09T12:11:47;9.18;;;5.70;;
4047;SDS011;2038;51.728;6.674;2023-07-09T12:14:16;8.15;;;6.10;;
4047;SDS011;2038;51.728;6.674;2023-07-09T12:16:47;7.63;;;5.82;;
4047;SDS011;2038;51.728;6.674;2023-07-09T12:19:18;8.90;;;6.18;;
4047;SDS011;2038;51.728;6.674;2023-07-09T12:21:55;10.18;;;6.07;;
4047;SDS011;2038;51.728;6.674;2023-07-09T12:24:30;12.13;;;6.43;;
4047;SDS011;2038;51.728;6.674;2023-07-09T12:27:42;15.55;;;6.32;;
4047;SDS011;2038;51.728;6.674;2023-07-09T12:30:02;9.07;;;5.03;;
4047;SDS011;2038;51.728;6.674;2023-07-09T12:32:42;8.75;;;5.13;;
4047;SDS011;2038;51.728;6.674;2023-07-09T12:35:12;8.48;;;5.30;;
4047;SDS011;2038;51.728;6.674;2023-07-09T12:37:40;11.27;;;6.35;;
4047;SDS011;2038;51.728;6.674;2023-07-09T12:40:12;11.27;;;5.50;;
4047;SDS011;2038;51.728;6.674;2023-07-09T12:42:44;7.65;;;5.22;;
4047;SDS011;2038;51.728;6.674;2023-07-09T12:45:19;12.90;;;5.68;;
4047;SDS011;2038;51.728;6.674;2023-07-09T12:47:47;6.50;;;4.80;;
4047;SDS011;2038;51.728;6.674;2023-07-09T12:50:18;8.10;;;5.63;;
4047;SDS011;2038;51.728;6.674;2023-07-09T12:52:52;6.88;;;4.95;;
4047;SDS011;2038;51.728;6.674;2023-07-09T12:55:26;9.63;;;5.38;;
4047;SDS011;2038;51.728;6.674;2023-07-09T12:57:56;7.07;;;4.82;;
4047;SDS011;2038;51.728;6.674;2023-07-09T13:00:31;9.52;;;5.18;;
4047;SDS011;2038;51.728;6.674;2023-07-09T13:02:58;7.90;;;6.35;;
4047;SDS011;2038;51.728;6.674;2023-07-09T13:05:25;5.97;;;5.00;;
4047;SDS011;2038;51.728;6.674;2023-07-09T13:08:01;8.30;;;4.97;;
4047;SDS011;2038;51.728;6.674;2023-07-09T13:10:28;7.97;;;4.78;;
4047;SDS011;2038;51.728;6.674;2023-07-09T13:13:04;5.07;;;4.57;;
4047;SDS011;2038;51.728;6.674;2023-07-09T13:15:42;11.00;;;5.00;;
4047;SDS011;2038;51.728;6.674;2023-07-09T13:18:24;9.57;;;5.25;;
4047;SDS011;2038;51.728;6.674;2023-07-09T13:20:51;13.15;;;6.35;;
4047;SDS011;2038;51.728;6.674;2023-07-09T13:23:20;14.88;;;4.78;;
4047;SDS011;2038;51.728;6.674;2023-07-09T13:25:57;9.85;;;5.72;;
4047;SDS011;2038;51.728;6.674;2023-07-09T13:28:27;10.25;;;5.75;;
4047;SDS011;2038;51.728;6.674;2023-07-09T13:30:57;9.40;;;5.68;;
4047;SDS011;2038;51.728;6.674;2023-07-09T13:33:33;11.57;;;5.63;;
4047;SDS011;2038;51.728;6.674;2023-07-09T13:35:59;9.75;;;5.55;;
4047;SDS011;2038;51.728;6.674;2023-07-09T13:38:25;9.65;;;5.47;;
4047;SDS011;2038;51.728;6.674;2023-07-09T13:40:54;9.55;;;4.60;;
4047;SDS011;2038;51.728;6.674;2023-07-09T13:43:31;6.72;;;4.63;;
4047;SDS011;2038;51.728;6.674;2023-07-09T13:46:00;6.40;;;4.63;;
4047;SDS011;2038;51.728;6.674;2023-07-09T13:48:29;6.38;;;4.85;;
4047;SDS011;2038;51.728;6.674;2023-07-09T13:50:58;11.45;;;4.47;;
4047;SDS011;2038;51.728;6.674;2023-07-09T13:53:27;8.30;;;5.10;;
4047;SDS011;2038;51.728;6.674;2023-07-09T13:55:57;9.38;;;5.07;;
4047;SDS011;2038;51.728;6.674;2023-07-09T13:58:24;5.97;;;4.75;;
4047;SDS011;2038;51.728;6.674;2023-07-09T14:00:59;9.73;;;4.45;;
4047;SDS011;2038;51.728;6.674;2023-07-09T14:03:37;15.82;;;5.28;;
4047;SDS011;2038;51.728;6.674;2023-07-09T14:06:03;10.40;;;5.00;;
4047;SDS011;2038;51.728;6.674;2023-07-09T14:08:29;6.60;;;4.93;;
4047;SDS011;2038;51.728;6.674;2023-07-09T14:10:55;7.28;;;4.78;;
4047;SDS011;2038;51.728;6.674;2023-07-09T14:13:23;9.27;;;5.38;;
4047;SDS011;2038;51.728;6.674;2023-07-09T14:15:50;9.05;;;4.97;;
4047;SDS011;2038;51.728;6.674;2023-07-09T14:18:18;8.60;;;4.88;;
4047;SDS011;2038;51.728;6.674;2023-07-09T14:20:47;6.65;;;4.53;;
4047;SDS011;2038;51.728;6.674;2023-07-09T14:23:15;5.40;;;4.65;;
4047;SDS011;2038;51.728;6.674;2023-07-09T14:25:44;6.47;;;4.82;;
4047;SDS011;2038;51.728;6.674;2023-07-09T14:28:15;8.93;;;4.35;;
4047;SDS011;2038;51.728;6.674;2023-07-09T14:30:44;6.85;;;5.40;;
4047;SDS011;2038;51.728;6.674;2023-07-09T14:33:15;9.38;;;4.90;;
4047;SDS011;2038;51.728;6.674;2023-07-09T14:35:45;9.70;;;5.07;;
4047;SDS011;2038;51.728;6.674;2023-07-09T14:38:20;19.30;;;5.88;;
4047;SDS011;2038;51.728;6.674;2023-07-09T14:40:49;16.83;;;6.43;;
4047;SDS011;2038;51.728;6.674;2023-07-09T14:43:20;10.82;;;6.47;;
4047;SDS011;2038;51.728;6.674;2023-07-09T14:45:47;9.93;;;6.45;;
4047;SDS011;2038;51.728;6.674;2023-07-09T14:48:17;8.93;;;5.95;;
4047;SDS011;2038;51.728;6.674;2023-07-09T14:50:46;9.10;;;5.55;;
4047;SDS011;2038;51.728;6.674;2023-07-09T14:53:20;9.30;;;4.45;;
4047;SDS011;2038;51.728;6.674;2023-07-09T14:55:51;5.97;;;4.45;;
4047;SDS011;2038;51.728;6.674;2023-07-09T14:58:21;8.77;;;4.35;;
4047;SDS011;2038;51.728;6.674;2023-07-09T15:00:49;7.20;;;4.40;;
4047;SDS011;2038;51.728;6.674;2023-07-09T15:03:22;6.95;;;4.03;;
4047;SDS011;2038;51.728;6.674;2023-07-09T15:05:51;5.70;;;4.57;;
4047;SDS011;2038;51.728;6.674;2023-07-09T15:08:23;11.45;;;5.72;;
4047;SDS011;2038;51.728;6.674;2023-07-09T15:10:51;12.45;;;7.55;;
4047;SDS011;2038;51.728;6.674;2023-07-09T15:13:28;21.60;;;9.20;;
4047;SDS011;2038;51.728;6.674;2023-07-09T15:15:59;25.27;;;11.33;;
4047;SDS011;2038;51.728;6.674;2023-07-09T15:18:27;15.43;;;10.20;;
4047;SDS011;2038;51.728;6.674;2023-07-09T15:20:57;13.90;;;10.57;;
4047;SDS011;2038;51.728;6.674;2023-07-09T15:23:26;14.53;;;10.20;;
4047;SDS011;2038;51.728;6.674;2023-07-09T15:25:54;12.00;;;10.63;;
4047;SDS011;2038;51.728;6.674;2023-07-09T15:28:21;17.00;;;11.10;;
4047;SDS011;2038;51.728;6.674;2023-07-09T15:30:48;14.90;;;10.60;;
4047;SDS011;2038;51.728;6.674;2023-07-09T15:33:15;11.90;;;8.83;;
4047;SDS011;2038;51.728;6.674;2023-07-09T15:35:44;13.10;;;10.30;;
4047;SDS011;2038;51.728;6.674;2023-07-09T15:40:50;14.20;;;9.60;;
4047;SDS011;2038;51.728;6.674;2023-07-09T15:43:16;11.87;;;8.97;;
4047;SDS011;2038;51.728;6.674;2023-07-09T15:45:44;12.23;;;8.80;;
4047;SDS011;2038;51.728;6.674;2023-07-09T15:51:10;8.57;;;7.13;;
4047;SDS011;2038;51.728;6.674;2023-07-09T15:53:36;8.87;;;7.27;;
4047;SDS011;2038;51.728;6.674;2023-07-09T15:56:04;10.60;;;7.07;;
4047;SDS011;2038;51.728;6.674;2023-07-09T15:58:38;7.90;;;7.20;;
4047;SDS011;2038;51.728;6.674;2023-07-09T16:01:10;9.40;;;7.17;;
4047;SDS011;2038;51.728;6.674;2023-07-09T16:03:43;14.43;;;8.50;;
4047;SDS011;2038;51.728;6.674;2023-07-09T16:06:23;8.30;;;6.27;;
4047;SDS011;2038;51.728;6.674;2023-07-09T16:08:51;9.77;;;6.37;;